sensor_id;sensor_type;location;lat;lon;timestamp;pressure;altitude;pressure_sealevel;temperature;humidity
25658;BME280;13517;59.320;18.042;2023-05-25T00:01:17;100901.75;;;16.59;68.03
25658;BME280;13517;59.320;18.042;2023-05-25T00:03:42;100898.81;;;16.51;68.20
25658;BME280;13517;59.320;18.042;2023-05-25T00:06:10;100909.66;;;16.62;69.03
25658;BME280;13517;59.320;18.042;2023-05-25T00:08:37;100916.09;;;16.61;69.16
25658;BME280;13517;59.320;18.042;2023-05-25T00:11:04;100892.63;;;16.48;69.48
25658;BME280;13517;59.320;18.042;2023-05-25T00:13:29;100910.91;;;16.58;69.88
25658;BME280;13517;59.320;18.042;2023-05-25T00:15:55;100874.34;;;16.39;70.14
25658;BME280;13517;59.320;18.042;2023-05-25T00:18:20;100889.50;;;16.53;70.25
25658;BME280;13517;59.320;18.042;2023-05-25T00:20:46;100874.94;;;16.43;70.18
25658;BME280;13517;59.320;18.042;2023-05-25T00:23:11;100900.16;;;16.56;71.00
25658;BME280;13517;59.320;18.042;2023-05-25T00:25:37;100878.41;;;16.45;71.52
25658;BME280;13517;59.320;18.042;2023-05-25T00:28:02;100876.81;;;16.42;72.45
25658;BME280;13517;59.320;18.042;2023-05-25T00:30:28;100881.94;;;16.36;72.94
25658;BME280;13517;59.320;18.042;2023-05-25T00:32:54;100907.25;;;16.47;73.50
25658;BME280;13517;59.320;18.042;2023-05-25T00:35:20;100898.00;;;16.39;74.70
25658;BME280;13517;59.320;18.042;2023-05-25T00:37:45;100903.47;;;16.39;76.26
25658;BME280;13517;59.320;18.042;2023-05-25T00:40:14;100907.72;;;16.31;77.69
25658;BME280;13517;59.320;18.042;2023-05-25T00:42:42;100904.41;;;16.28;78.00
25658;BME280;13517;59.320;18.042;2023-05-25T00:45:08;100900.94;;;16.26;78.83
25658;BME280;13517;59.320;18.042;2023-05-25T00:47:34;100894.78;;;16.24;79.10
25658;BME280;13517;59.320;18.042;2023-05-25T00:50:00;100888.13;;;16.16;79.05
25658;BME280;13517;59.320;18.042;2023-05-25T00:52:26;100877.75;;;16.10;79.12
25658;BME280;13517;59.320;18.042;2023-05-25T00:54:54;100890.09;;;16.14;78.92
25658;BME280;13517;59.320;18.042;2023-05-25T00:57:24;100877.75;;;16.10;79.05
25658;BME280;13517;59.320;18.042;2023-05-25T00:59:53;100883.44;;;16.07;79.00
25658;BME280;13517;59.320;18.042;2023-05-25T01:02:20;100858.47;;;16.02;80.01
25658;BME280;13517;59.320;18.042;2023-05-25T01:04:52;100895.84;;;16.11;80.94
25658;BME280;13517;59.320;18.042;2023-05-25T01:07:21;100890.63;;;16.08;80.82
25658;BME280;13517;59.320;18.042;2023-05-25T01:09:56;100890.19;;;16.03;81.15
25658;BME280;13517;59.320;18.042;2023-05-25T01:12:23;100889.44;;;16.01;80.89
25658;BME280;13517;59.320;18.042;2023-05-25T01:14:52;100902.41;;;16.09;80.94
25658;BME280;13517;59.320;18.042;2023-05-25T01:17:19;100891.78;;;16.05;81.42
25658;BME280;13517;59.320;18.042;2023-05-25T01:19:45;100901.69;;;16.06;81.42
25658;BME280;13517;59.320;18.042;2023-05-25T01:22:41;100893.91;;;16.02;81.65
25658;BME280;13517;59.320;18.042;2023-05-25T01:25:12;100839.25;;;15.71;81.12
25658;BME280;13517;59.320;18.042;2023-05-25T01:28:24;100858.28;;;15.82;81.21
25658;BME280;13517;59.320;18.042;2023-05-25T01:30:31;100887.69;;;16.00;81.14
25658;BME280;13517;59.320;18.042;2023-05-25T01:32:58;100902.81;;;16.04;81.28
25658;BME280;13517;59.320;18.042;2023-05-25T01:35:26;100894.63;;;16.04;81.74
25658;BME280;13517;59.320;18.042;2023-05-25T01:37:51;100887.09;;;15.96;81.50
25658;BME280;13517;59.320;18.042;2023-05-25T01:40:17;100865.19;;;15.86;81.80
25658;BME280;13517;59.320;18.042;2023-05-25T01:42:42;100900.31;;;16.01;82.35
25658;BME280;13517;59.320;18.042;2023-05-25T01:45:08;100882.78;;;15.93;82.16
25658;BME280;13517;59.320;18.042;2023-05-25T01:47:45;100885.50;;;15.93;82.67
25658;BME280;13517;59.320;18.042;2023-05-25T01:53:11;100898.38;;;15.91;83.29
25658;BME280;13517;59.320;18.042;2023-05-25T01:55:47;100901.59;;;15.85;83.52
25658;BME280;13517;59.320;18.042;2023-05-25T01:58:18;100872.81;;;15.71;84.09
25658;BME280;13517;59.320;18.042;2023-05-25T02:00:46;100881.22;;;15.68;84.57
25658;BME280;13517;59.320;18.042;2023-05-25T02:03:13;100896.53;;;15.80;85.08
25658;BME280;13517;59.320;18.042;2023-05-25T02:05:40;100893.22;;;15.77;85.51
25658;BME280;13517;59.320;18.042;2023-05-25T02:08:06;100853.47;;;15.53;85.50
25658;BME280;13517;59.320;18.042;2023-05-25T02:10:31;100905.97;;;15.76;85.75
25658;BME280;13517;59.320;18.042;2023-05-25T02:12:57;100873.84;;;15.59;85.97
25658;BME280;13517;59.320;18.042;2023-05-25T02:15:22;100896.84;;;15.66;86.40
25658;BME280;13517;59.320;18.042;2023-05-25T02:17:48;100897.97;;;15.63;86.52
25658;BME280;13517;59.320;18.042;2023-05-25T02:20:13;100890.78;;;15.62;86.98
25658;BME280;13517;59.320;18.042;2023-05-25T02:22:39;100895.13;;;15.65;86.90
25658;BME280;13517;59.320;18.042;2023-05-25T02:25:04;100904.03;;;15.67;87.19
25658;BME280;13517;59.320;18.042;2023-05-25T02:27:30;100883.13;;;15.56;88.05
25658;BME280;13517;59.320;18.042;2023-05-25T02:29:55;100861.13;;;15.48;87.96
25658;BME280;13517;59.320;18.042;2023-05-25T02:32:21;100867.44;;;15.48;88.32
25658;BME280;13517;59.320;18.042;2023-05-25T02:34:46;100879.69;;;15.54;88.46
25658;BME280;13517;59.320;18.042;2023-05-25T02:37:12;100877.72;;;15.45;88.23
25658;BME280;13517;59.320;18.042;2023-05-25T02:39:38;100885.13;;;15.54;88.77
25658;BME280;13517;59.320;18.042;2023-05-25T02:42:04;100873.03;;;15.35;88.87
25658;BME280;13517;59.320;18.042;2023-05-25T02:44:30;100870.09;;;15.38;89.17
25658;BME280;13517;59.320;18.042;2023-05-25T02:46:55;100895.81;;;15.46;89.02
25658;BME280;13517;59.320;18.042;2023-05-25T02:49:21;100903.22;;;15.44;88.74
25658;BME280;13517;59.320;18.042;2023-05-25T02:51:46;100878.13;;;15.29;88.54
25658;BME280;13517;59.320;18.042;2023-05-25T02:54:11;100884.94;;;15.23;88.16
25658;BME280;13517;59.320;18.042;2023-05-25T02:56:37;100897.03;;;15.42;88.33
25658;BME280;13517;59.320;18.042;2023-05-25T02:59:02;100905.94;;;15.44;88.21
25658;BME280;13517;59.320;18.042;2023-05-25T03:01:28;100910.38;;;15.45;87.49
25658;BME280;13517;59.320;18.042;2023-05-25T03:03:55;100882.97;;;15.25;87.48
25658;BME280;13517;59.320;18.042;2023-05-25T03:06:20;100903.22;;;15.44;87.56
25658;BME280;13517;59.320;18.042;2023-05-25T03:08:47;100915.81;;;15.45;87.36
25658;BME280;13517;59.320;18.042;2023-05-25T03:11:13;100868.88;;;15.20;87.30
25658;BME280;13517;59.320;18.042;2023-05-25T03:13:38;100882.97;;;15.25;87.38
25658;BME280;13517;59.320;18.042;2023-05-25T03:16:04;100926.09;;;15.41;87.64
25658;BME280;13517;59.320;18.042;2023-05-25T03:18:30;100903.75;;;15.26;87.65
25658;BME280;13517;59.320;18.042;2023-05-25T03:20:55;100900.75;;;15.29;87.77
25658;BME280;13517;59.320;18.042;2023-05-25T03:23:21;100915.22;;;15.41;87.99
25658;BME280;13517;59.320;18.042;2023-05-25T03:25:46;100888.75;;;15.32;87.51
25658;BME280;13517;59.320;18.042;2023-05-25T03:28:11;100889.75;;;15.31;87.23
25658;BME280;13517;59.320;18.042;2023-05-25T03:30:37;100913.25;;;15.32;87.39
25658;BME280;13517;59.320;18.042;2023-05-25T03:33:02;100905.97;;;15.32;87.62
25658;BME280;13517;59.320;18.042;2023-05-25T03:35:28;100923.13;;;15.44;87.45
25658;BME280;13517;59.320;18.042;2023-05-25T03:37:53;100917.19;;;15.39;87.43
25658;BME280;13517;59.320;18.042;2023-05-25T03:40:19;100925.75;;;15.34;87.32
25658;BME280;13517;59.320;18.042;2023-05-25T03:42:44;100919.31;;;15.35;87.66
25658;BME280;13517;59.320;18.042;2023-05-25T03:45:10;100906.09;;;15.31;87.69
25658;BME280;13517;59.320;18.042;2023-05-25T03:47:36;100896.59;;;15.25;87.42
25658;BME280;13517;59.320;18.042;2023-05-25T03:50:04;100911.88;;;15.37;87.21
25658;BME280;13517;59.320;18.042;2023-05-25T03:52:33;100924.75;;;15.35;87.05
25658;BME280;13517;59.320;18.042;2023-05-25T03:54:58;100925.13;;;15.31;86.89
25658;BME280;13517;59.320;18.042;2023-05-25T03:57:26;100873.09;;;15.01;87.51
25658;BME280;13517;59.320;18.042;2023-05-25T03:59:52;100921.41;;;15.32;87.15
25658;BME280;13517;59.320;18.042;2023-05-25T04:02:17;100918.59;;;15.33;86.95
25658;BME280;13517;59.320;18.042;2023-05-25T04:04:42;100905.75;;;15.24;86.98
25658;BME280;13517;59.320;18.042;2023-05-25T04:07:09;100925.88;;;15.33;86.62
25658;BME280;13517;59.320;18.042;2023-05-25T04:09:35;100897.94;;;15.19;86.23
25658;BME280;13517;59.320;18.042;2023-05-25T04:12:00;100893.88;;;15.14;86.26
25658;BME280;13517;59.320;18.042;2023-05-25T04:14:26;100918.97;;;15.29;86.62
25658;BME280;13517;59.320;18.042;2023-05-25T04:16:52;100923.03;;;15.34;86.50
25658;BME280;13517;59.320;18.042;2023-05-25T04:19:17;100937.63;;;15.33;86.46
25658;BME280;13517;59.320;18.042;2023-05-25T04:21:43;100905.97;;;15.09;86.16
25658;BME280;13517;59.320;18.042;2023-05-25T04:24:08;100902.91;;;15.03;86.63
25658;BME280;13517;59.320;18.042;2023-05-25T04:26:33;100932.06;;;15.12;86.96
25658;BME280;13517;59.320;18.042;2023-05-25T04:28:59;100922.31;;;14.98;87.00
25658;BME280;13517;59.320;18.042;2023-05-25T04:31:27;100948.41;;;15.12;86.87
25658;BME280;13517;59.320;18.042;2023-05-25T04:33:52;100905.50;;;14.81;87.62
25658;BME280;13517;59.320;18.042;2023-05-25T04:36:20;100955.34;;;15.16;87.56
25658;BME280;13517;59.320;18.042;2023-05-25T04:38:46;100935.16;;;15.07;86.93
25658;BME280;13517;59.320;18.042;2023-05-25T04:41:13;100930.13;;;15.14;87.08
25658;BME280;13517;59.320;18.042;2023-05-25T04:43:38;100952.22;;;15.21;87.17
25658;BME280;13517;59.320;18.042;2023-05-25T04:46:04;100948.16;;;15.15;87.07
25658;BME280;13517;59.320;18.042;2023-05-25T04:48:32;100934.44;;;15.05;87.82
25658;BME280;13517;59.320;18.042;2023-05-25T04:50:58;100950.00;;;15.15;87.62
25658;BME280;13517;59.320;18.042;2023-05-25T04:53:27;100954.34;;;15.17;87.79
25658;BME280;13517;59.320;18.042;2023-05-25T04:55:53;100948.53;;;15.10;87.67
25658;BME280;13517;59.320;18.042;2023-05-25T04:58:21;100950.50;;;15.08;87.83
25658;BME280;13517;59.320;18.042;2023-05-25T05:00:46;100973.78;;;15.24;88.43
25658;BME280;13517;59.320;18.042;2023-05-25T05:03:12;100980.81;;;15.27;88.10
25658;BME280;13517;59.320;18.042;2023-05-25T05:05:38;100947.78;;;15.08;88.46
25658;BME280;13517;59.320;18.042;2023-05-25T05:08:03;100953.97;;;15.10;88.59
25658;BME280;13517;59.320;18.042;2023-05-25T05:10:29;100963.38;;;15.18;88.45
25658;BME280;13517;59.320;18.042;2023-05-25T05:12:54;100955.59;;;15.13;88.80
25658;BME280;13517;59.320;18.042;2023-05-25T05:15:20;100964.50;;;15.15;88.77
25658;BME280;13517;59.320;18.042;2023-05-25T05:17:45;100920.09;;;14.92;88.83
25658;BME280;13517;59.320;18.042;2023-05-25T05:20:11;100921.81;;;14.93;89.21
25658;BME280;13517;59.320;18.042;2023-05-25T05:22:37;100979.56;;;15.31;88.83
25658;BME280;13517;59.320;18.042;2023-05-25T05:25:03;100954.97;;;15.21;89.06
25658;BME280;13517;59.320;18.042;2023-05-25T05:27:29;100963.75;;;15.24;89.05
25658;BME280;13517;59.320;18.042;2023-05-25T05:29:54;100946.78;;;15.09;89.15
25658;BME280;13517;59.320;18.042;2023-05-25T05:32:20;100951.63;;;15.17;89.32
25658;BME280;13517;59.320;18.042;2023-05-25T05:34:45;100985.38;;;15.37;88.48
25658;BME280;13517;59.320;18.042;2023-05-25T05:37:10;100980.31;;;15.33;88.90
25658;BME280;13517;59.320;18.042;2023-05-25T05:39:36;100988.47;;;15.44;88.62
25658;BME280;13517;59.320;18.042;2023-05-25T05:42:02;100991.81;;;15.48;88.65
25658;BME280;13517;59.320;18.042;2023-05-25T05:44:27;100955.09;;;15.31;88.58
25658;BME280;13517;59.320;18.042;2023-05-25T05:46:54;100986.25;;;15.49;87.89
25658;BME280;13517;59.320;18.042;2023-05-25T05:49:25;100949.78;;;15.18;87.67
25658;BME280;13517;59.320;18.042;2023-05-25T05:51:51;100961.91;;;15.25;87.99
25658;BME280;13517;59.320;18.042;2023-05-25T05:54:16;100963.13;;;15.21;87.17
25658;BME280;13517;59.320;18.042;2023-05-25T05:56:42;100998.09;;;15.48;87.38
25658;BME280;13517;59.320;18.042;2023-05-25T05:59:07;100971.03;;;15.35;87.49
25658;BME280;13517;59.320;18.042;2023-05-25T06:01:32;100957.06;;;15.29;87.09
25658;BME280;13517;59.320;18.042;2023-05-25T06:03:58;100996.50;;;15.57;86.53
25658;BME280;13517;59.320;18.042;2023-05-25T06:06:23;101001.44;;;15.63;86.06
25658;BME280;13517;59.320;18.042;2023-05-25T06:08:49;100979.94;;;15.60;85.74
25658;BME280;13517;59.320;18.042;2023-05-25T06:11:15;101016.78;;;15.76;85.68
25658;BME280;13517;59.320;18.042;2023-05-25T06:13:40;101031.75;;;15.82;85.84
25658;BME280;13517;59.320;18.042;2023-05-25T06:16:06;101030.88;;;15.92;85.08
25658;BME280;13517;59.320;18.042;2023-05-25T06:18:31;101020.47;;;15.86;82.71
25658;BME280;13517;59.320;18.042;2023-05-25T06:20:57;101016.13;;;15.84;80.18
25658;BME280;13517;59.320;18.042;2023-05-25T06:23:22;101020.22;;;15.89;78.07
25658;BME280;13517;59.320;18.042;2023-05-25T06:25:47;101038.06;;;16.05;76.05
25658;BME280;13517;59.320;18.042;2023-05-25T06:28:13;101016.41;;;15.92;74.32
25658;BME280;13517;59.320;18.042;2023-05-25T06:30:39;101025.81;;;15.99;73.79
25658;BME280;13517;59.320;18.042;2023-05-25T06:33:04;101037.28;;;16.14;72.98
25658;BME280;13517;59.320;18.042;2023-05-25T06:35:30;101042.69;;;16.26;71.94
25658;BME280;13517;59.320;18.042;2023-05-25T06:37:55;101052.56;;;15.94;70.08
25658;BME280;13517;59.320;18.042;2023-05-25T06:40:21;101085.00;;;15.86;68.95
25658;BME280;13517;59.320;18.042;2023-05-25T06:42:46;101060.88;;;15.47;69.11
25658;BME280;13517;59.320;18.042;2023-05-25T06:45:12;101061.59;;;15.26;68.01
25658;BME280;13517;59.320;18.042;2023-05-25T06:47:37;101086.09;;;15.26;67.74
25658;BME280;13517;59.320;18.042;2023-05-25T06:50:03;101095.09;;;15.15;68.84
25658;BME280;13517;59.320;18.042;2023-05-25T06:52:28;101055.56;;;14.87;68.54
25658;BME280;13517;59.320;18.042;2023-05-25T06:54:54;101083.78;;;14.86;68.73
25658;BME280;13517;59.320;18.042;2023-05-25T06:57:21;101095.13;;;14.79;67.04
25658;BME280;13517;59.320;18.042;2023-05-25T06:59:47;101088.84;;;14.79;66.72
25658;BME280;13517;59.320;18.042;2023-05-25T07:02:12;101087.88;;;14.67;64.01
25658;BME280;13517;59.320;18.042;2023-05-25T07:04:38;101117.13;;;14.63;64.01
25658;BME280;13517;59.320;18.042;2023-05-25T07:07:03;101112.66;;;14.51;63.56
25658;BME280;13517;59.320;18.042;2023-05-25T07:09:28;101073.44;;;14.18;62.10
25658;BME280;13517;59.320;18.042;2023-05-25T07:11:54;101117.16;;;14.39;61.99
25658;BME280;13517;59.320;18.042;2023-05-25T07:14:19;101094.28;;;14.17;61.60
25658;BME280;13517;59.320;18.042;2023-05-25T07:16:45;101117.31;;;14.24;61.32
25658;BME280;13517;59.320;18.042;2023-05-25T07:19:10;101121.53;;;14.28;60.74
25658;BME280;13517;59.320;18.042;2023-05-25T07:21:36;101114.72;;;14.23;60.90
25658;BME280;13517;59.320;18.042;2023-05-25T07:24:02;101130.97;;;14.36;60.39
25658;BME280;13517;59.320;18.042;2023-05-25T07:26:29;101153.25;;;14.41;60.71
25658;BME280;13517;59.320;18.042;2023-05-25T07:28:55;101136.84;;;14.42;60.27
25658;BME280;13517;59.320;18.042;2023-05-25T07:31:20;101132.25;;;14.43;59.29
25658;BME280;13517;59.320;18.042;2023-05-25T07:33:46;101125.09;;;14.42;58.53
25658;BME280;13517;59.320;18.042;2023-05-25T07:36:11;101150.72;;;14.51;58.61
25658;BME280;13517;59.320;18.042;2023-05-25T07:38:37;101156.78;;;14.54;59.36
25658;BME280;13517;59.320;18.042;2023-05-25T07:41:03;101169.50;;;14.54;58.52
25658;BME280;13517;59.320;18.042;2023-05-25T07:43:28;101094.00;;;14.09;58.96
25658;BME280;13517;59.320;18.042;2023-05-25T07:45:53;101164.16;;;14.52;59.43
25658;BME280;13517;59.320;18.042;2023-05-25T07:48:19;101134.59;;;14.23;58.23
25658;BME280;13517;59.320;18.042;2023-05-25T07:50:44;101157.97;;;14.26;57.89
25658;BME280;13517;59.320;18.042;2023-05-25T07:53:10;101110.19;;;14.10;58.09
25658;BME280;13517;59.320;18.042;2023-05-25T07:55:35;101145.66;;;14.33;57.35
25658;BME280;13517;59.320;18.042;2023-05-25T07:58:04;101177.25;;;14.47;56.77
25658;BME280;13517;59.320;18.042;2023-05-25T08:00:32;101168.81;;;14.39;56.39
25658;BME280;13517;59.320;18.042;2023-05-25T08:02:59;101169.25;;;14.33;55.77
25658;BME280;13517;59.320;18.042;2023-05-25T08:05:26;101184.88;;;14.42;55.04
25658;BME280;13517;59.320;18.042;2023-05-25T08:07:52;101165.03;;;14.28;55.14
25658;BME280;13517;59.320;18.042;2023-05-25T08:10:18;101177.31;;;14.21;55.66
25658;BME280;13517;59.320;18.042;2023-05-25T08:12:43;101118.03;;;14.02;55.64
25658;BME280;13517;59.320;18.042;2023-05-25T08:15:08;101202.91;;;14.43;54.84
25658;BME280;13517;59.320;18.042;2023-05-25T08:17:34;101214.44;;;14.47;54.80
25658;BME280;13517;59.320;18.042;2023-05-25T08:20:00;101175.06;;;14.15;54.83
25658;BME280;13517;59.320;18.042;2023-05-25T08:22:25;101219.22;;;14.43;54.29
25658;BME280;13517;59.320;18.042;2023-05-25T08:24:51;101219.03;;;14.46;53.91
25658;BME280;13517;59.320;18.042;2023-05-25T08:27:17;101238.75;;;14.61;54.33
25658;BME280;13517;59.320;18.042;2023-05-25T08:29:42;101218.50;;;14.65;53.58
25658;BME280;13517;59.320;18.042;2023-05-25T08:32:08;101227.75;;;14.76;53.50
25658;BME280;13517;59.320;18.042;2023-05-25T08:34:33;101226.75;;;14.77;52.93
25658;BME280;13517;59.320;18.042;2023-05-25T08:36:59;101228.63;;;14.76;53.17
25658;BME280;13517;59.320;18.042;2023-05-25T08:39:24;101229.63;;;14.75;53.17
25658;BME280;13517;59.320;18.042;2023-05-25T08:41:50;101244.69;;;14.79;52.89
25658;BME280;13517;59.320;18.042;2023-05-25T08:44:16;101215.66;;;14.67;52.55
25658;BME280;13517;59.320;18.042;2023-05-25T08:46:42;101258.13;;;14.94;52.78
25658;BME280;13517;59.320;18.042;2023-05-25T08:49:13;101256.75;;;14.88;52.33
25658;BME280;13517;59.320;18.042;2023-05-25T08:51:47;101222.63;;;14.71;51.94
25658;BME280;13517;59.320;18.042;2023-05-25T08:54:17;101228.50;;;14.65;52.42
25658;BME280;13517;59.320;18.042;2023-05-25T08:56:51;101232.50;;;14.72;51.83
25658;BME280;13517;59.320;18.042;2023-05-25T09:01:45;101244.38;;;14.71;51.30
25658;BME280;13517;59.320;18.042;2023-05-25T09:04:14;101218.63;;;14.64;52.23
25658;BME280;13517;59.320;18.042;2023-05-25T09:06:41;101235.44;;;14.82;51.91
25658;BME280;13517;59.320;18.042;2023-05-25T09:09:10;101261.22;;;15.14;51.33
25658;BME280;13517;59.320;18.042;2023-05-25T09:11:38;101273.97;;;15.13;50.91
25658;BME280;13517;59.320;18.042;2023-05-25T09:14:04;101207.84;;;14.75;50.51
25658;BME280;13517;59.320;18.042;2023-05-25T09:16:30;101220.00;;;14.82;50.08
25658;BME280;13517;59.320;18.042;2023-05-25T09:18:58;101255.84;;;15.25;49.95
25658;BME280;13517;59.320;18.042;2023-05-25T09:21:24;101259.69;;;15.34;49.95
25658;BME280;13517;59.320;18.042;2023-05-25T09:23:50;101256.84;;;15.35;50.31
25658;BME280;13517;59.320;18.042;2023-05-25T09:26:15;101258.56;;;15.25;49.70
25658;BME280;13517;59.320;18.042;2023-05-25T09:28:44;101239.44;;;15.14;49.03
25658;BME280;13517;59.320;18.042;2023-05-25T09:31:14;101308.38;;;15.50;49.70
25658;BME280;13517;59.320;18.042;2023-05-25T09:33:40;101245.75;;;15.14;49.57
25658;BME280;13517;59.320;18.042;2023-05-25T09:36:06;101299.19;;;15.39;49.88
25658;BME280;13517;59.320;18.042;2023-05-25T09:38:32;101301.84;;;15.28;49.49
25658;BME280;13517;59.320;18.042;2023-05-25T09:40:58;101298.44;;;15.37;49.73
25658;BME280;13517;59.320;18.042;2023-05-25T09:43:23;101290.31;;;15.49;49.78
25658;BME280;13517;59.320;18.042;2023-05-25T09:45:51;101301.47;;;15.57;48.91
25658;BME280;13517;59.320;18.042;2023-05-25T09:48:17;101305.72;;;15.61;48.81
25658;BME280;13517;59.320;18.042;2023-05-25T09:50:42;101277.41;;;15.39;48.38
25658;BME280;13517;59.320;18.042;2023-05-25T09:53:08;101318.63;;;15.71;47.80
25658;BME280;13517;59.320;18.042;2023-05-25T09:55:36;101257.88;;;15.46;47.83
25658;BME280;13517;59.320;18.042;2023-05-25T09:58:01;101288.13;;;15.65;47.56
25658;BME280;13517;59.320;18.042;2023-05-25T10:00:27;101295.56;;;15.63;47.93
25658;BME280;13517;59.320;18.042;2023-05-25T10:02:52;101293.66;;;15.52;48.04
25658;BME280;13517;59.320;18.042;2023-05-25T10:05:18;101320.97;;;15.75;47.94
25658;BME280;13517;59.320;18.042;2023-05-25T10:07:44;101318.91;;;15.90;47.73
25658;BME280;13517;59.320;18.042;2023-05-25T10:10:12;101268.84;;;15.69;47.65
25658;BME280;13517;59.320;18.042;2023-05-25T10:12:42;101311.97;;;15.86;47.36
25658;BME280;13517;59.320;18.042;2023-05-25T10:15:10;101334.19;;;15.93;46.94
25658;BME280;13517;59.320;18.042;2023-05-25T10:17:42;101308.50;;;15.84;46.65
25658;BME280;13517;59.320;18.042;2023-05-25T10:20:08;101305.41;;;15.89;46.69
25658;BME280;13517;59.320;18.042;2023-05-25T10:25:22;101338.19;;;16.12;45.96
25658;BME280;13517;59.320;18.042;2023-05-25T10:30:39;101321.94;;;15.99;45.80
25658;BME280;13517;59.320;18.042;2023-05-25T10:33:06;101333.88;;;16.09;45.40
25658;BME280;13517;59.320;18.042;2023-05-25T10:35:31;101338.56;;;16.07;44.90
25658;BME280;13517;59.320;18.042;2023-05-25T10:37:59;101329.38;;;15.97;44.78
25658;BME280;13517;59.320;18.042;2023-05-25T10:40:25;101314.25;;;15.68;44.49
25658;BME280;13517;59.320;18.042;2023-05-25T10:42:50;101304.56;;;15.52;44.78
25658;BME280;13517;59.320;18.042;2023-05-25T10:45:16;101311.84;;;15.52;44.76
25658;BME280;13517;59.320;18.042;2023-05-25T10:47:42;101294.41;;;15.55;44.41
25658;BME280;13517;59.320;18.042;2023-05-25T10:50:23;101330.03;;;15.87;43.84
25658;BME280;13517;59.320;18.042;2023-05-25T10:55:27;101288.78;;;16.28;42.82
25658;BME280;13517;59.320;18.042;2023-05-25T10:58:13;101321.25;;;16.65;41.28
25658;BME280;13517;59.320;18.042;2023-05-25T11:00:39;101324.34;;;16.72;42.40
25658;BME280;13517;59.320;18.042;2023-05-25T11:03:05;101330.44;;;16.75;42.37
25658;BME280;13517;59.320;18.042;2023-05-25T11:05:38;101327.94;;;16.84;42.15
25658;BME280;13517;59.320;18.042;2023-05-25T11:08:08;101324.47;;;17.05;41.88
25658;BME280;13517;59.320;18.042;2023-05-25T11:10:49;101318.28;;;17.02;40.74
25658;BME280;13517;59.320;18.042;2023-05-25T11:13:21;101336.81;;;17.20;41.03
25658;BME280;13517;59.320;18.042;2023-05-25T11:16:13;101340.09;;;17.47;40.25
25658;BME280;13517;59.320;18.042;2023-05-25T11:18:43;101344.06;;;17.75;41.06
25658;BME280;13517;59.320;18.042;2023-05-25T11:24:03;101344.34;;;17.72;39.99
25658;BME280;13517;59.320;18.042;2023-05-25T11:26:34;101338.28;;;17.68;40.69
25658;BME280;13517;59.320;18.042;2023-05-25T11:29:13;101340.66;;;17.62;39.74
25658;BME280;13517;59.320;18.042;2023-05-25T11:31:38;101337.34;;;17.47;40.27
25658;BME280;13517;59.320;18.042;2023-05-25T11:34:05;101344.78;;;17.56;40.33
25658;BME280;13517;59.320;18.042;2023-05-25T11:36:31;101327.09;;;17.39;40.10
25658;BME280;13517;59.320;18.042;2023-05-25T11:39:08;101318.94;;;17.27;39.59
25658;BME280;13517;59.320;18.042;2023-05-25T11:41:33;101329.16;;;17.47;39.87
25658;BME280;13517;59.320;18.042;2023-05-25T11:44:04;101342.44;;;17.51;40.04
25658;BME280;13517;59.320;18.042;2023-05-25T11:46:32;101329.75;;;17.50;39.76
25658;BME280;13517;59.320;18.042;2023-05-25T11:49:00;101334.94;;;17.65;40.08
25658;BME280;13517;59.320;18.042;2023-05-25T11:51:27;101301.13;;;17.45;39.72
25658;BME280;13517;59.320;18.042;2023-05-25T11:53:53;101329.69;;;17.73;39.77
25658;BME280;13517;59.320;18.042;2023-05-25T11:56:19;101304.00;;;17.64;39.69
25658;BME280;13517;59.320;18.042;2023-05-25T11:58:47;101302.59;;;17.70;39.45
25658;BME280;13517;59.320;18.042;2023-05-25T12:01:23;101327.81;;;17.95;39.44
25658;BME280;13517;59.320;18.042;2023-05-25T12:03:52;101336.22;;;18.03;39.08
25658;BME280;13517;59.320;18.042;2023-05-25T12:06:28;101311.06;;;17.88;39.13
25658;BME280;13517;59.320;18.042;2023-05-25T12:08:54;101336.75;;;17.97;39.89
25658;BME280;13517;59.320;18.042;2023-05-25T12:11:28;101319.75;;;17.93;39.04
25658;BME280;13517;59.320;18.042;2023-05-25T12:13:54;101328.78;;;18.05;39.13
25658;BME280;13517;59.320;18.042;2023-05-25T12:16:20;101334.13;;;18.07;38.89
25658;BME280;13517;59.320;18.042;2023-05-25T12:18:45;101336.72;;;18.08;39.03
25658;BME280;13517;59.320;18.042;2023-05-25T12:21:11;101316.47;;;18.11;39.23
25658;BME280;13517;59.320;18.042;2023-05-25T12:23:36;101330.03;;;18.22;38.95
25658;BME280;13517;59.320;18.042;2023-05-25T12:26:10;101313.84;;;18.09;38.80
25658;BME280;13517;59.320;18.042;2023-05-25T12:28:36;101307.50;;;18.09;39.44
25658;BME280;13517;59.320;18.042;2023-05-25T12:31:24;101322.09;;;17.98;38.81
25658;BME280;13517;59.320;18.042;2023-05-25T12:34:18;101322.69;;;18.02;38.66
25658;BME280;13517;59.320;18.042;2023-05-25T12:36:54;101326.69;;;18.19;38.89
25658;BME280;13517;59.320;18.042;2023-05-25T12:41:59;101327.53;;;18.41;39.08
25658;BME280;13517;59.320;18.042;2023-05-25T12:44:27;101306.47;;;18.31;39.39
25658;BME280;13517;59.320;18.042;2023-05-25T12:46:56;101310.56;;;18.47;39.07
25658;BME280;13517;59.320;18.042;2023-05-25T12:49:33;101296.91;;;18.47;39.26
25658;BME280;13517;59.320;18.042;2023-05-25T12:52:00;101311.84;;;18.74;39.75
25658;BME280;13517;59.320;18.042;2023-05-25T12:54:43;101300.00;;;18.73;39.79
25658;BME280;13517;59.320;18.042;2023-05-25T12:57:13;101325.09;;;18.78;39.73
25658;BME280;13517;59.320;18.042;2023-05-25T12:59:44;101317.53;;;18.51;39.44